Time;durP1;ratioP1;P1;durP2;ratioP2;P2;SDS_P1;SDS_P2;PMS_P1;PMS_P2;Temp;Humidity;BMP_temperature;BMP_pressure;BME280_temperature;BME280_humidity;BME280_pressure;Samples;Min_cycle;Max_cycle;Signal;HPM_P1;HPM_P2
2022/10/21 00:00:57;;;;;;;18.90;16.33;;;15.80;57.60;;;;;;5085311;28;20413;-58
2022/10/21 00:03:24;;;;;;;17.27;15.87;;;15.70;58.80;;;;;;5082884;28;20183;-58
2022/10/21 00:05:51;;;;;;;20.30;16.47;;;15.80;58.60;;;;;;5086135;28;20416;-58
2022/10/21 00:08:17;;;;;;;16.57;15.10;;;15.90;58.00;;;;;;5083580;28;20478;-58
2022/10/21 00:10:43;;;;;;;16.73;15.23;;;16.00;57.30;;;;;;5083311;28;20554;-58
2022/10/21 00:13:09;;;;;;;17.23;15.57;;;16.10;56.80;;;;;;5086281;28;20536;-58
2022/10/21 00:15:34;;;;;;;15.33;14.23;;;16.10;56.30;;;;;;5084142;28;20409;-58
2022/10/21 00:18:00;;;;;;;17.50;16.10;;;16.10;55.80;;;;;;5083425;28;20432;-58
2022/10/21 00:20:26;;;;;;;18.23;16.50;;;16.20;55.60;;;;;;5083912;28;20230;-58
2022/10/21 00:22:52;;;;;;;17.93;16.17;;;16.20;55.20;;;;;;5068417;28;20749;-58
2022/10/21 00:25:17;;;;;;;17.87;16.17;;;16.20;54.70;;;;;;5085307;28;20170;-58
2022/10/21 00:27:43;;;;;;;19.00;17.30;;;16.20;54.40;;;;;;5083587;28;20175;-58
2022/10/21 00:30:11;;;;;;;18.60;16.53;;;16.10;54.40;;;;;;5085677;28;20227;-58
2022/10/21 00:32:37;;;;;;;17.20;15.80;;;16.10;54.00;;;;;;5082603;28;20202;-59
2022/10/21 00:35:03;;;;;;;16.17;14.73;;;16.10;54.30;;;;;;5086064;28;20412;-59
2022/10/21 00:37:30;;;;;;;16.57;15.30;;;16.00;54.00;;;;;;5083433;28;20171;-59
2022/10/21 00:39:56;;;;;;;17.63;16.00;;;16.00;54.10;;;;;;5083003;28;20797;-59
2022/10/21 00:42:33;;;;;;;16.97;15.30;;;16.00;54.30;;;;;;5082707;28;20424;-59
2022/10/21 00:45:05;;;;;;;17.70;15.63;;;16.00;54.70;;;;;;5084532;28;20176;-59
2022/10/21 00:47:43;;;;;;;17.90;16.30;;;15.90;55.20;;;;;;5082745;28;20433;-59
2022/10/21 00:50:43;;;;;;;14.83;13.53;;;15.90;56.00;;;;;;5082167;28;20911;-59
2022/10/21 00:53:13;;;;;;;15.23;13.77;;;15.90;55.70;;;;;;5065534;28;20468;-59
2022/10/21 00:55:44;;;;;;;16.90;15.50;;;15.90;55.30;;;;;;5080812;28;20515;-58
2022/10/21 00:58:10;;;;;;;16.73;15.33;;;16.00;55.10;;;;;;5083458;28;20421;-58
2022/10/21 01:00:36;;;;;;;16.77;15.40;;;15.90;55.00;;;;;;5086600;28;20417;-58
2022/10/21 01:03:02;;;;;;;19.23;15.33;;;15.90;55.60;;;;;;5084073;28;20470;-58
2022/10/21 01:05:28;;;;;;;18.13;16.13;;;15.80;56.00;;;;;;5083701;28;20247;-58
2022/10/21 01:07:55;;;;;;;15.80;14.40;;;15.60;56.60;;;;;;5083695;28;20428;-58
2022/10/21 01:10:21;;;;;;;16.37;15.10;;;15.60;56.50;;;;;;5082567;28;20413;-58
2022/10/21 01:13:08;;;;;;;16.30;15.00;;;15.50;57.20;;;;;;5082658;28;20463;-58
2022/10/21 01:16:02;;;;;;;16.97;15.30;;;15.50;57.70;;;;;;5083617;28;20179;-58
2022/10/21 01:19:02;;;;;;;18.53;15.17;;;15.60;57.70;;;;;;5085000;28;20818;-56
2022/10/21 01:21:37;;;;;;;17.03;15.60;;;15.50;56.80;;;;;;5078694;28;20420;-57
2022/10/21 01:24:03;;;;;;;16.33;15.17;;;15.50;57.90;;;;;;5085401;28;20503;-57
2022/10/21 01:26:50;;;;;;;15.07;13.83;;;15.60;57.70;;;;;;5082771;28;20511;-57
2022/10/21 01:29:31;;;;;;;20.23;14.70;;;15.70;57.00;;;;;;5083235;28;20490;-57
2022/10/21 01:32:21;;;;;;;15.57;14.47;;;15.80;56.50;;;;;;5081360;28;20547;-56
2022/10/21 01:35:13;;;;;;;15.83;14.57;;;15.90;55.90;;;;;;5080140;28;20425;-57
2022/10/21 01:37:44;;;;;;;17.20;15.97;;;15.90;55.50;;;;;;5083619;28;20916;-57
2022/10/21 01:40:33;;;;;;;15.67;14.30;;;15.90;55.20;;;;;;5084103;28;20429;-57
2022/10/21 01:43:11;;;;;;;17.53;16.10;;;15.90;55.30;;;;;;5080113;28;20481;-58
2022/10/21 01:45:45;;;;;;;16.03;14.83;;;15.90;55.00;;;;;;5081129;28;20423;-58
2022/10/21 01:48:18;;;;;;;17.30;15.83;;;15.80;55.60;;;;;;5082685;28;20440;-59
2022/10/21 01:50:52;;;;;;;17.33;16.03;;;15.50;56.20;;;;;;5081900;28;20413;-59
2022/10/21 01:53:18;;;;;;;15.63;14.43;;;15.40;57.90;;;;;;5082821;28;20528;-59
2022/10/21 01:55:44;;;;;;;15.20;14.00;;;15.30;59.10;;;;;;5082274;28;20436;-59
2022/10/21 01:58:18;;;;;;;16.87;15.43;;;15.20;60.30;;;;;;5082575;28;20436;-59
2022/10/21 02:00:45;;;;;;;17.73;16.00;;;15.10;61.20;;;;;;5083175;28;20503;-59
2022/10/21 02:03:15;;;;;;;16.70;14.90;;;15.10;61.80;;;;;;5081665;28;20421;-59
2022/10/21 02:05:40;;;;;;;15.83;14.27;;;15.10;61.70;;;;;;5083205;28;20424;-59
2022/10/21 02:08:07;;;;;;;14.93;13.60;;;15.20;62.00;;;;;;5081098;28;20783;-59
2022/10/21 02:10:37;;;;;;;15.37;14.10;;;15.30;61.80;;;;;;5082950;28;20194;-59
2022/10/21 02:13:07;;;;;;;15.60;14.20;;;15.50;60.80;;;;;;5081167;28;20905;-58
2022/10/21 02:15:33;;;;;;;16.13;14.57;;;15.60;60.00;;;;;;5081945;28;20416;-58
2022/10/21 02:18:09;;;;;;;17.10;15.40;;;15.70;59.20;;;;;;5082673;28;20784;-58
2022/10/21 02:20:42;;;;;;;16.27;14.57;;;15.70;58.30;;;;;;5080671;28;20470;-58
2022/10/21 02:23:13;;;;;;;16.30;14.63;;;15.70;58.80;;;;;;5081761;28;20421;-58
2022/10/21 02:25:41;;;;;;;17.57;16.00;;;15.80;58.80;;;;;;5080867;28;20427;-59
2022/10/21 02:28:07;;;;;;;16.17;14.83;;;15.90;58.50;;;;;;5082176;28;20425;-58
2022/10/21 02:30:47;;;;;;;16.37;14.97;;;15.90;57.90;;;;;;5082913;28;20443;-58
2022/10/21 02:33:22;;;;;;;17.30;15.63;;;15.90;57.40;;;;;;5064819;28;20483;-59
2022/10/21 02:35:47;;;;;;;15.77;14.53;;;15.90;57.30;;;;;;5082828;28;20409;-59
2022/10/21 02:38:27;;;;;;;18.57;14.70;;;15.90;56.60;;;;;;5080340;28;20412;-58
2022/10/21 02:41:12;;;;;;;15.70;14.50;;;16.00;56.70;;;;;;5083017;28;20208;-59
2022/10/21 02:43:48;;;;;;;17.23;15.93;;;16.00;56.70;;;;;;5081648;28;20417;-58
2022/10/21 02:46:14;;;;;;;17.57;15.97;;;16.00;56.70;;;;;;5082592;28;20943;-58
2022/10/21 02:48:43;;;;;;;17.93;15.50;;;15.90;56.70;;;;;;5081723;28;20416;-58
2022/10/21 02:51:09;;;;;;;15.27;14.17;;;15.80;57.90;;;;;;5081701;28;20189;-59
2022/10/21 02:53:35;;;;;;;15.80;14.53;;;15.70;58.80;;;;;;5082839;28;20439;-58
2022/10/21 02:56:01;;;;;;;16.70;15.50;;;15.50;59.40;;;;;;5080778;28;20417;-58
2022/10/21 02:58:27;;;;;;;15.50;14.10;;;15.50;60.00;;;;;;5078639;28;20413;-59
2022/10/21 03:00:52;;;;;;;15.87;14.70;;;15.60;60.20;;;;;;5082191;28;20206;-58
2022/10/21 03:03:18;;;;;;;15.70;14.37;;;15.70;59.80;;;;;;5081601;28;20270;-58
2022/10/21 03:05:44;;;;;;;14.97;13.80;;;15.80;59.40;;;;;;5081814;28;20319;-58
2022/10/21 03:08:09;;;;;;;16.83;15.27;;;15.80;58.80;;;;;;5083169;28;20182;-58
2022/10/21 03:10:35;;;;;;;16.43;14.67;;;15.60;59.30;;;;;;5083647;28;20182;-58
2022/10/21 03:13:01;;;;;;;14.93;13.93;;;15.80;59.90;;;;;;5084504;28;20241;-58
2022/10/21 03:15:26;;;;;;;15.47;14.20;;;15.80;59.60;;;;;;5083170;28;20542;-58
2022/10/21 03:17:52;;;;;;;16.07;14.87;;;15.90;59.10;;;;;;5083603;28;20182;-58
2022/10/21 03:20:18;;;;;;;16.57;15.20;;;15.90;58.70;;;;;;5083966;28;20267;-58
2022/10/21 03:22:43;;;;;;;17.37;15.97;;;16.00;58.30;;;;;;5084572;28;20266;-58
2022/10/21 03:25:10;;;;;;;15.87;14.70;;;16.00;57.70;;;;;;5086741;28;20184;-58
2022/10/21 03:27:35;;;;;;;15.73;14.53;;;16.00;57.80;;;;;;5088473;28;20175;-58
2022/10/21 03:30:03;;;;;;;16.97;15.73;;;16.10;57.40;;;;;;5090020;28;20448;-60
2022/10/21 03:32:35;;;;;;;15.90;14.80;;;16.10;57.20;;;;;;5090745;28;20198;-60
2022/10/21 03:35:00;;;;;;;16.87;15.50;;;16.00;57.60;;;;;;5089766;28;20419;-58
2022/10/21 03:37:26;;;;;;;16.43;15.23;;;16.00;58.10;;;;;;5090865;28;20499;-58
2022/10/21 03:39:52;;;;;;;14.70;13.40;;;15.90;58.60;;;;;;5091878;28;20526;-58
2022/10/21 03:42:17;;;;;;;15.40;14.30;;;15.90;59.70;;;;;;5090316;28;20522;-58
2022/10/21 03:44:43;;;;;;;14.73;13.57;;;15.80;60.50;;;;;;5089997;28;20247;-58
2022/10/21 03:47:09;;;;;;;17.20;15.80;;;15.70;61.20;;;;;;5088832;28;20261;-58
2022/10/21 03:49:34;;;;;;;16.47;14.97;;;15.70;61.20;;;;;;5091070;28;20240;-58
2022/10/21 03:52:00;;;;;;;16.63;15.13;;;15.70;61.00;;;;;;5093125;28;20229;-58
2022/10/21 03:54:25;;;;;;;16.30;15.00;;;15.60;61.30;;;;;;5092498;28;20197;-58
2022/10/21 03:56:51;;;;;;;16.33;15.20;;;15.70;61.80;;;;;;5092740;28;20519;-58
2022/10/21 03:59:17;;;;;;;16.03;14.70;;;15.60;61.80;;;;;;5093275;28;20181;-58
2022/10/21 04:01:42;;;;;;;14.60;13.20;;;15.60;62.20;;;;;;5091948;28;20174;-58
2022/10/21 04:04:08;;;;;;;14.87;13.47;;;15.50;62.40;;;;;;5093120;28;20178;-58
2022/10/21 04:06:34;;;;;;;16.17;14.77;;;15.50;62.90;;;;;;5093297;28;20179;-58
2022/10/21 04:09:00;;;;;;;15.33;14.20;;;15.50;62.90;;;;;;5094184;28;20186;-59
2022/10/21 04:11:25;;;;;;;14.27;12.87;;;15.50;62.80;;;;;;5090945;28;20603;-58
2022/10/21 04:13:51;;;;;;;14.00;12.70;;;15.50;62.30;;;;;;5092604;28;20175;-59
2022/10/21 04:16:19;;;;;;;13.47;12.37;;;15.50;62.50;;;;;;5093764;28;20193;-59
2022/10/21 04:18:44;;;;;;;15.43;14.33;;;15.60;62.40;;;;;;5093151;28;20175;-59
2022/10/21 04:21:10;;;;;;;13.70;12.67;;;15.60;62.70;;;;;;5093227;28;20766;-59
2022/10/21 04:23:36;;;;;;;13.63;12.70;;;15.50;62.40;;;;;;5091668;28;20228;-58
2022/10/21 04:26:03;;;;;;;13.73;12.50;;;15.50;63.00;;;;;;5088608;28;20217;-59
2022/10/21 04:28:29;;;;;;;20.30;12.90;;;15.50;62.90;;;;;;5093113;28;20247;-59
2022/10/21 04:30:55;;;;;;;13.30;12.10;;;15.60;62.80;;;;;;5092430;28;20447;-58
2022/10/21 04:33:20;;;;;;;13.90;12.60;;;15.70;62.00;;;;;;5091641;28;20210;-59
2022/10/21 04:35:46;;;;;;;18.27;9.47;;;15.70;61.70;;;;;;5090378;28;20261;-59
2022/10/21 04:38:12;;;;;;;12.43;11.10;;;15.70;61.90;;;;;;5091514;28;20170;-56
2022/10/21 04:40:37;;;;;;;10.87;9.87;;;15.70;61.30;;;;;;5089397;28;20178;-56
2022/10/21 04:43:03;;;;;;;10.60;9.60;;;15.70;61.30;;;;;;5092678;28;20170;-56
2022/10/21 04:45:28;;;;;;;13.47;9.90;;;15.70;61.20;;;;;;5092541;28;20213;-56
2022/10/21 04:47:54;;;;;;;10.63;9.63;;;15.70;61.50;;;;;;5091751;28;20186;-55
2022/10/21 04:50:20;;;;;;;10.27;9.40;;;15.70;61.70;;;;;;5091086;28;20243;-56
2022/10/21 04:52:45;;;;;;;12.83;11.73;;;15.70;62.00;;;;;;5092371;28;20208;-57
2022/10/21 04:55:11;;;;;;;13.27;12.07;;;15.70;61.90;;;;;;5091287;28;20171;-57
2022/10/21 04:57:38;;;;;;;12.03;11.17;;;15.70;61.60;;;;;;5092892;28;20182;-57
2022/10/21 05:00:06;;;;;;;19.40;11.80;;;15.80;61.40;;;;;;5091566;28;20202;-56
2022/10/21 05:02:31;;;;;;;10.80;9.70;;;15.70;61.20;;;;;;5091012;28;20504;-56
2022/10/21 05:04:57;;;;;;;10.43;9.53;;;15.80;61.80;;;;;;5091426;28;20539;-56
2022/10/21 05:07:23;;;;;;;10.10;9.30;;;15.80;62.00;;;;;;5088059;28;20186;-52
2022/10/21 05:09:49;;;;;;;10.60;9.70;;;15.80;61.90;;;;;;5088886;28;20275;-53
2022/10/21 05:12:14;;;;;;;11.53;10.50;;;15.90;61.40;;;;;;5091449;28;20560;-55
2022/10/21 05:14:40;;;;;;;11.53;10.43;;;15.90;60.90;;;;;;5091935;28;20177;-58
2022/10/21 05:17:05;;;;;;;10.57;9.77;;;15.90;60.80;;;;;;5088813;28;20202;-56
2022/10/21 05:19:31;;;;;;;10.83;10.13;;;16.00;60.40;;;;;;5091049;28;20171;-56
2022/10/21 05:21:57;;;;;;;11.97;10.70;;;16.00;60.30;;;;;;5090166;28;20657;-56
2022/10/21 05:24:23;;;;;;;10.17;9.57;;;16.10;60.10;;;;;;5090921;28;20206;-58
2022/10/21 05:26:50;;;;;;;11.50;10.27;;;16.10;59.90;;;;;;5090193;28;20466;-57
2022/10/21 05:29:15;;;;;;;9.57;8.87;;;16.20;59.70;;;;;;5090538;28;20186;-59
2022/10/21 05:31:41;;;;;;;12.73;10.47;;;16.20;59.60;;;;;;5091029;28;20622;-57
2022/10/21 05:34:07;;;;;;;8.90;8.10;;;16.20;59.70;;;;;;5091853;28;20175;-57
2022/10/21 05:36:32;;;;;;;9.37;8.63;;;16.30;59.30;;;;;;5091545;28;20175;-57
2022/10/21 05:38:58;;;;;;;8.00;7.50;;;16.30;59.60;;;;;;5092018;28;20177;-57
2022/10/21 05:41:23;;;;;;;10.60;7.20;;;16.40;60.00;;;;;;5091378;28;20185;-58
2022/10/21 05:43:49;;;;;;;7.60;7.10;;;16.40;60.50;;;;;;5092055;28;20599;-57
2022/10/21 05:46:15;;;;;;;7.70;7.03;;;16.40;60.90;;;;;;5093471;28;20243;-56
2022/10/21 05:48:41;;;;;;;7.83;7.10;;;16.40;61.00;;;;;;5090283;28;20217;-56
2022/10/21 05:51:07;;;;;;;8.20;7.37;;;16.40;61.10;;;;;;5090541;28;20167;-56
2022/10/21 05:53:33;;;;;;;10.30;8.03;;;16.40;61.30;;;;;;5091466;28;20460;-57
2022/10/21 05:56:04;;;;;;;11.40;7.60;;;16.40;61.60;;;;;;5091851;28;20746;-57
2022/10/21 05:58:31;;;;;;;8.97;8.07;;;16.50;61.50;;;;;;5091937;28;20775;-57
2022/10/21 06:00:58;;;;;;;7.13;6.53;;;16.50;61.60;;;;;;5090262;28;20407;-57
2022/10/21 06:03:28;;;;;;;10.83;8.57;;;16.50;61.30;;;;;;5091055;28;20433;-57
2022/10/21 06:05:59;;;;;;;8.70;7.90;;;16.50;61.10;;;;;;5091979;28;21033;-57
2022/10/21 06:08:26;;;;;;;9.20;8.03;;;16.50;61.10;;;;;;5091596;28;20460;-57
2022/10/21 06:11:09;;;;;;;8.87;7.93;;;16.50;61.50;;;;;;5091131;28;20408;-55
2022/10/21 06:13:35;;;;;;;8.67;7.77;;;16.50;61.60;;;;;;5093173;28;20488;-56
2022/10/21 06:16:01;;;;;;;13.83;8.17;;;16.50;61.90;;;;;;5091112;28;20444;-58
2022/10/21 06:18:28;;;;;;;12.83;7.57;;;16.50;62.40;;;;;;5091583;28;20185;-58
2022/10/21 06:20:53;;;;;;;8.90;7.80;;;16.50;63.30;;;;;;5090236;28;20462;-56
2022/10/21 06:23:19;;;;;;;11.97;7.53;;;16.40;64.00;;;;;;5091562;28;20420;-56
2022/10/21 06:25:59;;;;;;;8.53;6.87;;;16.40;64.80;;;;;;5091435;28;20181;-55
2022/10/21 06:28:26;;;;;;;7.63;7.03;;;16.30;65.30;;;;;;5082880;28;20196;-56
2022/10/21 06:30:52;;;;;;;8.93;7.50;;;16.30;65.70;;;;;;5089472;28;20448;-54
2022/10/21 06:33:18;;;;;;;6.93;6.43;;;16.30;66.50;;;;;;5089289;28;20453;-54
2022/10/21 06:35:44;;;;;;;11.30;7.73;;;16.30;66.50;;;;;;5090559;28;20603;-54
2022/10/21 06:38:09;;;;;;;8.90;8.00;;;16.30;66.40;;;;;;5079987;28;20183;-56
2022/10/21 06:40:35;;;;;;;8.20;7.40;;;16.30;65.80;;;;;;5088395;28;20615;-56
2022/10/21 06:43:01;;;;;;;11.50;8.07;;;16.30;66.30;;;;;;5090574;28;20277;-62
2022/10/21 06:45:27;;;;;;;8.47;7.20;;;16.30;66.80;;;;;;5087305;28;20174;-56
2022/10/21 06:47:52;;;;;;;8.23;7.57;;;16.30;66.20;;;;;;5085295;28;20527;-56
2022/10/21 06:50:18;;;;;;;8.50;7.70;;;16.30;66.30;;;;;;5084286;28;20466;-57
2022/10/21 06:52:44;;;;;;;8.13;7.47;;;16.30;66.50;;;;;;5087132;28;20230;-57
2022/10/21 06:55:09;;;;;;;12.20;8.23;;;16.30;66.40;;;;;;5083275;28;20208;-56
2022/10/21 06:57:35;;;;;;;13.90;7.60;;;16.30;67.10;;;;;;5083462;28;20170;-56
2022/10/21 07:00:01;;;;;;;7.70;7.07;;;16.30;67.10;;;;;;5084370;28;20223;-52
2022/10/21 07:02:27;;;;;;;7.67;7.17;;;16.30;67.70;;;;;;5088675;28;20976;-50
2022/10/21 07:04:52;;;;;;;8.77;8.07;;;16.20;68.20;;;;;;5086074;28;20878;-51
2022/10/21 07:07:18;;;;;;;12.53;7.27;;;16.20;68.80;;;;;;5085661;28;20178;-53
2022/10/21 07:09:44;;;;;;;11.40;8.00;;;16.20;68.60;;;;;;5088801;28;21066;-54
2022/10/21 07:12:11;;;;;;;14.93;8.67;;;16.20;68.20;;;;;;5086444;28;20475;-50
2022/10/21 07:14:36;;;;;;;8.43;7.67;;;16.20;68.30;;;;;;5087973;28;20879;-56
2022/10/21 07:17:03;;;;;;;7.30;6.60;;;16.10;68.20;;;;;;5087062;28;20493;-56
2022/10/21 07:19:29;;;;;;;8.27;7.43;;;16.10;68.90;;;;;;5087151;28;20557;-56
2022/10/21 07:21:54;;;;;;;7.73;6.47;;;16.20;69.50;;;;;;5087142;28;20430;-56
2022/10/21 07:24:20;;;;;;;8.70;7.00;;;16.30;69.70;;;;;;5085832;28;20269;-56
2022/10/21 07:26:46;;;;;;;8.47;7.67;;;16.40;69.60;;;;;;5086210;28;20183;-56
2022/10/21 07:29:12;;;;;;;10.97;8.70;;;16.40;69.00;;;;;;5088652;28;20175;-56
2022/10/21 07:31:38;;;;;;;10.80;7.40;;;16.50;69.10;;;;;;5088298;28;20464;-56
2022/10/21 07:34:06;;;;;;;11.13;7.20;;;16.50;68.90;;;;;;5092682;28;20493;-56
2022/10/21 07:36:41;;;;;;;7.20;6.47;;;16.60;68.80;;;;;;5088424;28;20416;-57
2022/10/21 07:39:10;;;;;;;10.47;7.30;;;16.60;68.50;;;;;;5088088;28;20427;-57
2022/10/21 07:41:39;;;;;;;12.00;7.87;;;16.70;67.50;;;;;;5090342;28;20408;-57
2022/10/21 07:44:06;;;;;;;10.97;7.47;;;16.70;67.50;;;;;;5089255;28;20424;-56
2022/10/21 07:46:32;;;;;;;8.33;7.80;;;16.70;67.50;;;;;;5088756;28;20423;-56
2022/10/21 07:48:57;;;;;;;8.87;7.53;;;16.70;68.10;;;;;;5091217;28;20412;-57
2022/10/21 07:51:24;;;;;;;10.50;9.17;;;16.70;68.00;;;;;;5089993;28;20940;-56
2022/10/21 07:53:53;;;;;;;13.50;8.07;;;16.80;68.10;;;;;;5088138;28;20170;-57
2022/10/21 07:56:31;;;;;;;8.77;8.20;;;16.70;68.00;;;;;;5072427;28;20969;-57
2022/10/21 07:58:58;;;;;;;11.80;9.13;;;16.70;67.50;;;;;;5085948;28;20415;-55
2022/10/21 08:01:23;;;;;;;9.93;8.37;;;16.60;66.00;;;;;;5090201;28;20413;-54
2022/10/21 08:03:52;;;;;;;8.80;8.30;;;16.50;66.50;;;;;;5089919;28;20477;-56
2022/10/21 08:06:17;;;;;;;8.43;7.73;;;16.50;67.30;;;;;;5086680;28;20170;-56
2022/10/21 08:08:44;;;;;;;10.50;9.33;;;16.50;67.30;;;;;;5087669;28;20436;-55
2022/10/21 08:11:10;;;;;;;8.87;7.97;;;16.50;67.30;;;;;;5087458;28;20171;-55
2022/10/21 08:13:39;;;;;;;8.73;8.03;;;16.50;67.30;;;;;;5091872;28;20467;-55
2022/10/21 08:16:05;;;;;;;8.53;7.77;;;16.50;67.30;;;;;;5090254;28;20412;-55
2022/10/21 08:18:31;;;;;;;9.50;8.60;;;16.60;67.40;;;;;;5092967;28;20412;-56
2022/10/21 08:20:57;;;;;;;12.63;9.43;;;16.50;67.30;;;;;;5092313;28;20408;-56
2022/10/21 08:23:25;;;;;;;10.27;9.30;;;16.50;67.30;;;;;;5090124;28;20538;-54
2022/10/21 08:25:55;;;;;;;9.53;8.60;;;16.50;67.20;;;;;;5092155;28;20182;-56
2022/10/21 08:28:23;;;;;;;9.53;8.30;;;16.40;67.90;;;;;;5088882;28;20437;-56
2022/10/21 08:30:49;;;;;;;8.93;8.17;;;16.30;67.10;;;;;;5089725;28;20443;-57
2022/10/21 08:33:15;;;;;;;16.37;8.73;;;16.30;68.10;;;;;;5091746;28;20456;-56
2022/10/21 08:35:42;;;;;;;9.70;8.73;;;16.20;67.80;;;;;;5090324;28;20754;-57
2022/10/21 08:38:08;;;;;;;13.13;7.70;;;16.30;67.80;;;;;;5092468;28;20424;-57
2022/10/21 08:40:43;;;;;;;9.27;8.50;;;16.30;67.70;;;;;;5090338;28;20412;-57
2022/10/21 08:43:32;;;;;;;10.40;8.70;;;16.40;67.20;;;;;;5089938;28;21099;-57
2022/10/21 08:46:12;;;;;;;9.30;8.40;;;16.40;67.20;;;;;;5089949;28;20409;-57
2022/10/21 08:49:08;;;;;;;11.73;7.93;;;16.40;67.20;;;;;;5093238;28;20412;-57
2022/10/21 08:51:40;;;;;;;8.80;8.00;;;16.50;67.30;;;;;;5089493;28;20439;-57
2022/10/21 08:54:17;;;;;;;8.87;8.10;;;16.50;67.30;;;;;;5092178;28;20452;-56
2022/10/21 08:56:45;;;;;;;14.73;8.90;;;16.50;67.10;;;;;;5090900;28;20939;-57
2022/10/21 08:59:21;;;;;;;11.37;8.70;;;16.50;66.40;;;;;;5091627;28;20443;-57
2022/10/21 09:02:18;;;;;;;9.20;8.40;;;16.60;65.90;;;;;;5091138;28;20416;-56
2022/10/21 09:04:54;;;;;;;8.90;8.37;;;16.50;66.90;;;;;;5090257;28;20451;-57
2022/10/21 09:07:23;;;;;;;11.53;8.60;;;16.50;68.00;;;;;;5089916;28;20477;-55
2022/10/21 09:10:00;;;;;;;9.20;8.30;;;16.50;67.30;;;;;;5088159;28;20905;-55
2022/10/21 09:12:51;;;;;;;11.63;9.37;;;16.50;68.70;;;;;;5090590;28;20829;-55
2022/10/21 09:15:35;;;;;;;8.23;7.53;;;16.40;69.30;;;;;;5089402;28;20472;-56
2022/10/21 09:18:39;;;;;;;8.47;7.57;;;16.40;70.20;;;;;;5091090;28;20409;-57
2022/10/21 09:21:11;;;;;;;12.10;9.17;;;16.40;69.60;;;;;;5070297;28;20435;-57
2022/10/21 09:23:41;;;;;;;9.33;8.50;;;16.50;68.70;;;;;;5088465;28;20421;-56
2022/10/21 09:26:26;;;;;;;11.13;8.20;;;16.50;69.60;;;;;;5091299;28;20819;-55
2022/10/21 09:28:52;;;;;;;7.43;6.83;;;16.50;69.10;;;;;;5089394;28;20487;-56
2022/10/21 09:31:19;;;;;;;6.50;6.00;;;16.50;69.00;;;;;;5087878;28;20928;-55
2022/10/21 09:33:58;;;;;;;11.13;9.07;;;16.50;69.10;;;;;;5091588;28;20197;-55
2022/10/21 09:36:37;;;;;;;8.70;7.27;;;16.50;68.40;;;;;;5090716;28;20842;-56
2022/10/21 09:39:12;;;;;;;10.17;6.87;;;16.60;68.30;;;;;;5089214;28;20857;-55
2022/10/21 09:41:42;;;;;;;7.60;7.10;;;16.60;67.40;;;;;;5090145;28;20469;-55
2022/10/21 09:44:18;;;;;;;9.30;6.63;;;16.70;67.50;;;;;;5088675;28;20507;-53
2022/10/21 09:46:45;;;;;;;8.33;7.73;;;16.70;67.50;;;;;;5086660;28;20430;-52
2022/10/21 09:49:29;;;;;;;6.37;5.90;;;16.70;65.80;;;;;;5090955;28;20408;-53
2022/10/21 09:51:58;;;;;;;7.63;7.00;;;16.70;64.50;;;;;;5089058;28;20464;-49
2022/10/21 09:54:26;;;;;;;7.57;7.07;;;16.70;64.30;;;;;;5091818;28;20432;-53
2022/10/21 09:57:02;;;;;;;7.00;6.70;;;16.70;62.90;;;;;;5090020;28;20485;-53
2022/10/21 09:59:30;;;;;;;8.20;7.63;;;16.70;62.10;;;;;;5089198;28;20780;-54
2022/10/21 10:01:56;;;;;;;6.90;6.60;;;16.70;62.10;;;;;;5088798;28;20439;-52
2022/10/21 10:04:32;;;;;;;8.37;7.57;;;16.70;61.20;;;;;;5088975;28;20891;-53
2022/10/21 10:07:17;;;;;;;9.03;7.13;;;16.80;60.70;;;;;;5090152;28;20420;-54
2022/10/21 10:09:45;;;;;;;7.93;7.47;;;16.80;60.00;;;;;;5088065;28;20413;-54
2022/10/21 10:12:19;;;;;;;7.20;6.60;;;16.90;61.10;;;;;;5088951;28;20467;-52
2022/10/21 10:14:45;;;;;;;8.27;7.67;;;17.00;60.60;;;;;;5089369;28;20416;-53
2022/10/21 10:17:31;;;;;;;7.20;6.70;;;17.00;59.80;;;;;;5088601;28;20545;-54
2022/10/21 10:20:02;;;;;;;7.83;6.70;;;17.10;59.70;;;;;;5088088;28;20500;-55
2022/10/21 10:22:36;;;;;;;8.20;7.80;;;17.10;59.20;;;;;;5087497;28;20719;-53
2022/10/21 10:25:14;;;;;;;8.87;8.17;;;17.10;59.30;;;;;;5090487;28;20530;-55
2022/10/21 10:28:02;;;;;;;7.03;6.63;;;17.20;60.40;;;;;;5089163;28;20452;-53
2022/10/21 10:30:39;;;;;;;7.93;7.33;;;17.30;59.50;;;;;;5088437;28;20982;-55
2022/10/21 10:33:18;;;;;;;7.70;7.20;;;17.30;59.20;;;;;;5089589;28;20513;-53
2022/10/21 10:36:22;;;;;;;8.30;7.60;;;17.30;59.20;;;;;;5089580;28;20420;-54
2022/10/21 10:38:54;;;;;;;8.83;8.13;;;17.20;58.30;;;;;;5082034;28;20410;-53
2022/10/21 10:41:27;;;;;;;8.93;8.17;;;17.30;57.80;;;;;;5086604;28;20940;-54
2022/10/21 10:43:54;;;;;;;7.33;7.03;;;17.30;57.80;;;;;;5088673;28;20419;-54
2022/10/21 10:46:28;;;;;;;9.03;7.63;;;17.30;57.80;;;;;;5088688;28;20412;-53
2022/10/21 10:48:56;;;;;;;8.17;7.77;;;17.20;57.70;;;;;;5087529;28;20474;-54
2022/10/21 10:51:24;;;;;;;8.30;7.90;;;17.30;57.80;;;;;;5086928;28;20442;-52
2022/10/21 10:54:25;;;;;;;9.90;9.20;;;17.30;56.50;;;;;;5087719;28;20468;-53
2022/10/21 10:57:14;;;;;;;8.23;7.70;;;17.30;56.80;;;;;;5084297;28;20417;-52
2022/10/21 11:00:09;;;;;;;9.07;7.80;;;17.30;57.50;;;;;;5088358;28;20417;-54
2022/10/21 11:02:48;;;;;;;10.53;9.00;;;17.30;57.40;;;;;;5086080;28;20417;-53
2022/10/21 11:05:23;;;;;;;7.67;7.13;;;17.30;56.80;;;;;;5087329;28;20416;-55
2022/10/21 11:08:17;;;;;;;8.00;7.30;;;17.40;56.60;;;;;;5086957;28;20623;-56
2022/10/21 11:10:52;;;;;;;8.20;7.50;;;17.30;56.30;;;;;;5085340;28;20428;-56
2022/10/21 11:13:20;;;;;;;8.33;7.37;;;17.40;56.30;;;;;;5086953;28;20463;-56
2022/10/21 11:16:09;;;;;;;7.50;7.20;;;17.40;55.20;;;;;;5088639;28;20981;-57
2022/10/21 11:18:44;;;;;;;8.20;7.80;;;17.40;55.00;;;;;;5089955;28;20440;-55
2022/10/21 11:21:16;;;;;;;7.83;7.40;;;17.50;55.10;;;;;;5088510;28;20412;-56
2022/10/21 11:23:53;;;;;;;8.00;7.30;;;17.50;55.90;;;;;;5085154;28;20419;-53
2022/10/21 11:26:49;;;;;;;7.03;6.73;;;17.60;56.70;;;;;;5088245;28;20535;-54
2022/10/21 11:29:21;;;;;;;6.87;6.40;;;17.60;55.70;;;;;;5087516;28;20412;-54
2022/10/21 11:32:14;;;;;;;7.80;7.40;;;17.70;55.30;;;;;;5087496;28;20463;-57
2022/10/21 11:35:06;;;;;;;7.10;6.80;;;17.70;55.60;;;;;;5085533;28;20443;-54
2022/10/21 11:37:48;;;;;;;7.27;6.87;;;17.80;55.10;;;;;;5067476;28;20426;-54
2022/10/21 11:40:32;;;;;;;6.93;6.50;;;17.80;53.70;;;;;;5086834;28;20892;-55
2022/10/21 11:43:33;;;;;;;7.90;7.50;;;17.80;53.90;;;;;;5089128;28;20437;-54
2022/10/21 11:46:22;;;;;;;8.17;7.43;;;17.80;54.30;;;;;;5090791;28;20781;-52
2022/10/21 11:48:54;;;;;;;7.23;6.97;;;17.80;53.10;;;;;;5092818;28;20908;-54
2022/10/21 11:51:38;;;;;;;8.27;7.90;;;17.90;52.00;;;;;;5088616;28;20413;-54
2022/10/21 11:54:20;;;;;;;8.43;8.03;;;17.90;50.70;;;;;;5092015;28;20473;-54
2022/10/21 11:57:03;;;;;;;8.63;8.10;;;18.00;51.10;;;;;;5092370;28;20413;-53
2022/10/21 11:59:51;;;;;;;8.80;8.50;;;18.00;50.80;;;;;;5092661;28;20515;-54
2022/10/21 12:02:24;;;;;;;9.13;8.60;;;17.90;50.80;;;;;;5092422;28;20408;-55
2022/10/21 12:05:32;;;;;;;7.87;7.57;;;18.00;50.80;;;;;;5093741;28;20412;-53
2022/10/21 12:08:15;;;;;;;8.43;7.90;;;18.00;51.40;;;;;;5053418;28;20524;-55
2022/10/21 12:10:59;;;;;;;8.57;8.27;;;18.00;51.80;;;;;;5053744;28;20518;-56
2022/10/21 12:13:49;;;;;;;8.37;8.00;;;18.10;51.70;;;;;;5080236;28;20499;-53
2022/10/21 12:16:23;;;;;;;8.20;7.90;;;18.10;50.20;;;;;;5092771;28;20444;-53
2022/10/21 12:18:55;;;;;;;8.90;8.40;;;18.00;49.80;;;;;;5090955;28;20420;-51
2022/10/21 12:21:24;;;;;;;7.67;7.37;;;18.00;50.10;;;;;;5089158;28;20424;-54
2022/10/21 12:23:57;;;;;;;8.60;8.30;;;18.00;50.10;;;;;;5092369;28;20463;-55
2022/10/21 12:26:50;;;;;;;9.20;8.80;;;18.00;48.60;;;;;;5091317;28;20417;-54
2022/10/21 12:29:46;;;;;;;23.80;21.30;;;18.00;49.60;;;;;;5090078;28;20412;-52
2022/10/21 12:32:28;;;;;;;8.10;7.80;;;18.00;48.70;;;;;;5089882;28;20869;-53
2022/10/21 12:34:54;;;;;;;8.37;8.07;;;18.00;48.90;;;;;;5093180;28;20760;-55
2022/10/21 12:37:51;;;;;;;8.57;8.23;;;18.00;49.50;;;;;;5091905;28;20466;-55
2022/10/21 12:40:26;;;;;;;7.37;7.10;;;18.00;50.20;;;;;;5092607;28;20404;-54
2022/10/21 12:43:02;;;;;;;8.00;7.70;;;17.90;48.60;;;;;;5090556;28;20415;-55
2022/10/21 12:45:31;;;;;;;9.13;8.40;;;17.90;48.50;;;;;;5089595;28;20416;-53
2022/10/21 12:47:57;;;;;;;8.03;7.73;;;17.90;48.60;;;;;;5091574;28;20423;-54
2022/10/21 12:50:31;;;;;;;8.23;7.93;;;17.90;49.10;;;;;;5088945;28;20412;-55
2022/10/21 12:53:11;;;;;;;7.80;7.50;;;17.80;48.80;;;;;;5091310;28;21041;-55
2022/10/21 12:55:39;;;;;;;8.70;8.13;;;17.80;48.80;;;;;;5089150;28;20524;-55
2022/10/21 12:58:31;;;;;;;7.87;7.47;;;17.80;48.50;;;;;;5089487;28;20428;-55
2022/10/21 13:00:58;;;;;;;7.93;7.43;;;17.80;49.40;;;;;;5090695;28;20832;-54